Time;durP1;ratioP1;P1;durP2;ratioP2;P2;SDS_P1;SDS_P2;PMS_P1;PMS_P2;Temp;Humidity;BMP_temperature;BMP_pressure;BME280_temperature;BME280_humidity;BME280_pressure;Samples;Min_cycle;Max_cycle;Signal;HPM_P1;HPM_P2
2022/12/07 00:01:18;;;;;;;12.38;7.53;;;22.10;99.90;;;;;;5052468;28;20533;-68
2022/12/07 00:03:46;;;;;;;9.70;7.32;;;22.00;99.90;;;;;;5051645;28;20041;-54
2022/12/07 00:06:12;;;;;;;;;;;22.00;99.90;;;;;;5044933;28;20079;-55
2022/12/07 00:08:38;;;;;;;10.63;7.30;;;22.00;99.90;;;;;;5043492;28;19918;-56
2022/12/07 00:11:09;;;;;;;12.55;7.72;;;22.00;99.90;;;;;;5052037;28;20632;-57
2022/12/07 00:13:36;;;;;;;9.52;7.55;;;22.00;99.90;;;;;;5052389;28;20087;-55
2022/12/07 00:16:04;;;;;;;11.33;7.50;;;22.00;99.90;;;;;;5052012;28;20086;-55
2022/12/07 00:18:30;;;;;;;10.05;6.93;;;22.00;99.90;;;;;;5051721;28;20021;-55
2022/12/07 00:21:01;;;;;;;10.43;6.95;;;22.00;99.90;;;;;;5041303;28;20080;-45
2022/12/07 00:23:26;;;;;;;10.57;7.10;;;22.00;99.90;;;;;;5030752;28;20060;-45
2022/12/07 00:25:52;;;;;;;13.48;6.88;;;22.00;99.90;;;;;;5031780;28;20057;-54
2022/12/07 00:28:18;;;;;;;9.32;6.22;;;22.00;99.90;;;;;;5047366;28;20056;-54
2022/12/07 00:30:44;;;;;;;10.25;6.25;;;22.10;99.90;;;;;;5051850;28;20025;-54
2022/12/07 00:33:09;;;;;;;8.45;6.15;;;22.00;99.90;;;;;;5051751;28;20104;-54
2022/12/07 00:35:35;;;;;;;9.30;5.78;;;22.00;99.90;;;;;;5051923;28;20120;-53
2022/12/07 00:38:01;;;;;;;10.25;7.30;;;22.00;99.90;;;;;;5051897;28;20068;-54
2022/12/07 00:40:26;;;;;;;8.55;6.60;;;22.00;99.90;;;;;;5051501;28;20379;-52
2022/12/07 00:42:52;;;;;;;12.18;7.03;;;22.00;99.90;;;;;;5051574;28;20032;-51
2022/12/07 00:45:18;;;;;;;10.20;6.75;;;22.00;99.90;;;;;;5051877;28;20036;-52
2022/12/07 00:47:43;;;;;;;10.98;7.30;;;22.00;99.90;;;;;;5034219;28;20032;-52
2022/12/07 00:50:09;;;;;;;10.02;6.63;;;22.00;99.90;;;;;;5051628;28;20035;-53
2022/12/07 00:52:35;;;;;;;11.80;7.57;;;21.90;99.90;;;;;;5047233;28;20108;-48
2022/12/07 00:55:01;;;;;;;13.98;7.00;;;21.90;99.90;;;;;;5030887;28;20033;-53
2022/12/07 00:57:26;;;;;;;9.55;6.70;;;21.90;99.90;;;;;;5046709;28;20033;-54
2022/12/07 00:59:55;;;;;;;9.85;6.85;;;21.90;99.90;;;;;;5046156;28;20048;-46
2022/12/07 01:02:22;;;;;;;9.65;6.35;;;21.90;99.90;;;;;;5015057;28;20021;-54
2022/12/07 01:04:47;;;;;;;10.53;7.13;;;21.90;99.90;;;;;;5051262;28;20041;-55
2022/12/07 01:07:13;;;;;;;10.05;6.85;;;22.00;99.90;;;;;;5051620;28;20035;-54
2022/12/07 01:09:39;;;;;;;9.02;6.40;;;22.00;99.90;;;;;;5051844;28;20032;-55
2022/12/07 01:12:05;;;;;;;9.73;6.57;;;21.90;99.90;;;;;;5013614;28;20075;-56
2022/12/07 01:14:30;;;;;;;9.57;6.38;;;21.90;99.90;;;;;;5048569;28;20100;-54
2022/12/07 01:16:56;;;;;;;8.48;6.35;;;21.90;99.90;;;;;;5034019;28;20025;-55
2022/12/07 01:19:22;;;;;;;10.07;6.40;;;21.90;99.90;;;;;;5050886;28;20457;-54
2022/12/07 01:21:48;;;;;;;9.18;6.28;;;21.90;99.90;;;;;;5051361;28;20555;-55
2022/12/07 01:24:13;;;;;;;11.20;6.50;;;21.90;99.90;;;;;;5051443;28;20493;-57
2022/12/07 01:26:39;;;;;;;11.05;6.72;;;21.90;99.90;;;;;;5034536;28;20518;-47
2022/12/07 01:29:05;;;;;;;9.75;5.78;;;21.80;99.90;;;;;;5030859;28;20036;-58
2022/12/07 01:31:31;;;;;;;8.70;6.32;;;21.90;99.90;;;;;;5045415;28;20538;-56
2022/12/07 01:33:59;;;;;;;8.52;5.57;;;21.90;99.90;;;;;;5015180;28;20026;-50
2022/12/07 01:36:28;;;;;;;;;;;21.90;99.90;;;;;;5035551;28;20017;-54
2022/12/07 01:38:57;;;;;;;15.32;6.32;;;21.90;99.90;;;;;;5051591;28;20389;-54
2022/12/07 01:41:25;;;;;;;12.30;6.45;;;21.90;99.90;;;;;;5050952;28;20457;-55
2022/12/07 01:44:09;;;;;;;7.93;6.20;;;21.90;99.90;;;;;;5051235;28;20129;-55
2022/12/07 01:46:35;;;;;;;10.02;5.78;;;21.80;99.90;;;;;;5051724;28;20020;-56
2022/12/07 01:49:04;;;;;;;7.78;5.68;;;21.80;99.90;;;;;;5054412;28;20028;-55
2022/12/07 01:51:29;;;;;;;9.07;6.38;;;21.80;99.90;;;;;;5037124;28;20503;-54
2022/12/07 01:53:55;;;;;;;7.43;5.93;;;21.80;99.90;;;;;;5049210;28;20103;-55
2022/12/07 01:56:25;;;;;;;13.90;5.82;;;21.80;99.90;;;;;;5054370;28;20120;-55
2022/12/07 01:58:52;;;;;;;8.52;6.25;;;21.80;99.90;;;;;;5054669;28;20024;-55
2022/12/07 02:01:17;;;;;;;8.43;5.67;;;21.70;99.90;;;;;;5087722;22;20049;-55
2022/12/07 02:03:45;;;;;;;9.32;6.10;;;21.70;99.90;;;;;;5074345;28;20293;-54
2022/12/07 02:06:15;;;;;;;8.63;5.85;;;21.70;99.90;;;;;;5074533;28;20017;-54
2022/12/07 02:08:42;;;;;;;9.73;6.47;;;21.70;99.90;;;;;;5074656;28;20130;-56
2022/12/07 02:11:09;;;;;;;10.07;5.78;;;21.70;99.90;;;;;;5074165;28;20123;-57
2022/12/07 02:13:37;;;;;;;10.02;5.47;;;21.70;99.90;;;;;;5074404;28;20036;-58
2022/12/07 02:16:31;;;;;;;7.90;5.70;;;21.70;99.90;;;;;;5074215;28;20032;-56
2022/12/07 02:19:19;;;;;;;7.95;4.85;;;21.70;99.90;;;;;;5073726;28;20034;-55
2022/12/07 02:22:20;;;;;;;5.90;4.88;;;21.70;99.90;;;;;;5074291;28;20025;-56
2022/12/07 02:25:00;;;;;;;7.43;5.38;;;21.60;99.90;;;;;;4963640;28;20035;-56
2022/12/07 02:27:28;;;;;;;6.88;5.20;;;21.60;99.90;;;;;;5046199;28;20094;-57
2022/12/07 02:30:15;;;;;;;7.35;5.13;;;21.60;99.90;;;;;;5074132;28;20048;-55
2022/12/07 02:32:59;;;;;;;8.60;5.25;;;21.60;99.90;;;;;;5057783;28;20173;-56
2022/12/07 02:36:03;;;;;;;9.93;5.95;;;21.60;99.90;;;;;;5073716;28;20025;-55
2022/12/07 02:38:43;;;;;;;6.22;5.47;;;21.60;99.90;;;;;;5041398;28;20044;-55
2022/12/07 02:41:18;;;;;;;10.15;5.85;;;21.60;99.90;;;;;;5073816;28;20020;-55
2022/12/07 02:43:50;;;;;;;9.73;5.30;;;21.60;99.90;;;;;;5056090;28;20036;-55
2022/12/07 02:46:22;;;;;;;7.70;4.90;;;21.60;99.90;;;;;;5073456;28;20043;-55
2022/12/07 02:48:49;;;;;;;7.90;5.65;;;21.50;99.90;;;;;;5055920;28;20356;-55
2022/12/07 02:51:16;;;;;;;9.25;5.57;;;21.50;99.90;;;;;;5073722;28;20382;-54
2022/12/07 02:53:43;;;;;;;7.28;5.40;;;21.50;99.90;;;;;;5072734;28;20402;-56
2022/12/07 02:56:12;;;;;;;8.00;5.20;;;21.50;99.90;;;;;;5072920;28;20478;-55
2022/12/07 02:58:53;;;;;;;6.75;5.18;;;21.50;99.90;;;;;;5072773;28;20021;-55
2022/12/07 03:02:05;;;;;;;7.55;5.15;;;21.50;99.90;;;;;;5055325;22;20103;-54
2022/12/07 03:04:31;;;;;;;7.13;4.78;;;21.50;99.90;;;;;;4992781;28;20096;-54
2022/12/07 03:07:10;;;;;;;9.82;4.95;;;21.40;99.90;;;;;;5053422;28;20052;-53
2022/12/07 03:09:43;;;;;;;9.10;4.90;;;21.40;99.90;;;;;;5053202;28;20032;-54
2022/12/07 03:12:16;;;;;;;8.77;5.05;;;21.40;99.90;;;;;;5045320;28;20028;-52
2022/12/07 03:14:49;;;;;;;9.10;5.75;;;21.40;99.90;;;;;;5047207;28;20028;-53
2022/12/07 03:17:24;;;;;;;12.35;5.68;;;21.40;99.90;;;;;;5053151;28;20017;-53
2022/12/07 03:19:54;;;;;;;9.00;4.75;;;21.40;99.90;;;;;;5034915;28;20024;-54
2022/12/07 03:22:23;;;;;;;9.82;5.57;;;21.40;99.90;;;;;;5053113;28;20025;-53
2022/12/07 03:24:54;;;;;;;14.50;5.38;;;21.40;99.90;;;;;;5052705;28;20043;-53
2022/12/07 03:27:25;;;;;;;8.90;5.50;;;21.40;99.90;;;;;;5052908;28;20023;-53
2022/12/07 03:30:07;;;;;;;7.75;5.82;;;21.40;99.90;;;;;;5052598;28;20021;-52
2022/12/07 03:32:41;;;;;;;7.13;4.97;;;21.40;99.90;;;;;;5052626;28;20024;-54
2022/12/07 03:35:25;;;;;;;7.50;5.03;;;21.40;99.90;;;;;;5052649;28;20501;-54
2022/12/07 03:38:10;;;;;;;11.27;5.10;;;21.30;99.90;;;;;;5052520;28;20033;-55
2022/12/07 03:40:49;;;;;;;6.18;4.40;;;21.30;99.90;;;;;;5052632;28;20056;-53
2022/12/07 03:43:17;;;;;;;8.48;5.07;;;21.30;99.90;;;;;;5052671;28;20143;-53
2022/12/07 03:45:50;;;;;;;12.45;5.43;;;21.30;99.90;;;;;;5051236;28;20025;-54
2022/12/07 03:48:28;;;;;;;10.55;5.43;;;21.30;99.90;;;;;;5051669;28;20104;-53
2022/12/07 03:51:02;;;;;;;8.50;5.10;;;21.30;99.90;;;;;;5052701;28;20530;-53
2022/12/07 03:54:00;;;;;;;7.45;5.20;;;21.30;99.90;;;;;;5052754;28;20033;-52
2022/12/07 03:56:27;;;;;;;8.85;5.55;;;21.30;99.90;;;;;;5052493;28;20418;-52
2022/12/07 03:58:54;;;;;;;9.07;5.28;;;21.30;99.90;;;;;;5052664;28;20017;-52
2022/12/07 04:01:20;;;;;;;9.82;5.35;;;21.30;99.90;;;;;;5052920;28;20037;-52
2022/12/07 04:03:46;;;;;;;8.77;5.45;;;21.20;99.90;;;;;;5052724;28;20119;-52
2022/12/07 04:06:11;;;;;;;8.20;5.13;;;21.20;99.90;;;;;;5052429;28;20052;-53
2022/12/07 04:08:37;;;;;;;7.85;4.40;;;21.20;99.90;;;;;;5052310;28;20021;-52
2022/12/07 04:11:03;;;;;;;6.68;4.30;;;21.20;99.90;;;;;;5051845;28;20491;-51
2022/12/07 04:13:29;;;;;;;6.97;4.57;;;21.20;99.90;;;;;;5052303;28;20475;-53
2022/12/07 04:15:54;;;;;;;7.97;5.05;;;21.20;99.90;;;;;;5052199;28;20020;-53
2022/12/07 04:18:20;;;;;;;9.00;5.32;;;21.20;99.90;;;;;;5034461;28;20025;-53
2022/12/07 04:20:46;;;;;;;8.07;5.13;;;21.20;99.90;;;;;;5052397;28;20199;-53
2022/12/07 04:23:12;;;;;;;13.77;5.55;;;21.20;99.90;;;;;;5052012;28;20028;-52
2022/12/07 04:25:38;;;;;;;6.65;4.88;;;21.20;99.90;;;;;;5052179;28;20094;-53
2022/12/07 04:28:04;;;;;;;8.45;5.28;;;21.10;99.90;;;;;;5052087;28;20071;-52
2022/12/07 04:30:29;;;;;;;10.60;5.43;;;21.10;99.90;;;;;;5052308;28;20017;-53
2022/12/07 04:32:55;;;;;;;8.50;5.35;;;21.10;99.90;;;;;;5034335;28;20048;-53
2022/12/07 04:35:21;;;;;;;8.85;4.57;;;21.10;99.90;;;;;;5051882;28;20021;-53
2022/12/07 04:37:47;;;;;;;10.80;5.05;;;21.10;99.90;;;;;;5052391;28;20087;-53
2022/12/07 04:40:14;;;;;;;8.18;4.75;;;21.10;99.90;;;;;;5051891;28;20029;-53
2022/12/07 04:42:40;;;;;;;6.90;4.72;;;21.10;99.90;;;;;;5051875;28;20079;-53
2022/12/07 04:45:06;;;;;;;8.40;5.40;;;21.10;99.90;;;;;;5034000;28;20037;-52
2022/12/07 04:47:32;;;;;;;7.85;5.57;;;21.10;99.90;;;;;;5051731;28;20100;-52
2022/12/07 04:49:58;;;;;;;8.82;5.55;;;21.10;99.90;;;;;;5051766;28;20107;-53
2022/12/07 04:52:23;;;;;;;7.72;4.85;;;21.00;99.90;;;;;;5051853;28;20075;-53
2022/12/07 04:54:49;;;;;;;16.30;7.45;;;21.00;99.90;;;;;;5052188;28;20032;-52
2022/12/07 04:57:15;;;;;;;7.53;4.82;;;21.00;99.90;;;;;;5051939;28;20025;-52
2022/12/07 04:59:41;;;;;;;8.90;4.85;;;21.00;99.90;;;;;;5052217;28;20487;-53
2022/12/07 05:02:06;;;;;;;9.18;5.05;;;21.00;99.90;;;;;;5034514;28;20033;-52
2022/12/07 05:04:32;;;;;;;8.55;4.95;;;21.00;99.90;;;;;;5051655;28;20076;-52
2022/12/07 05:06:58;;;;;;;11.77;6.07;;;21.00;99.90;;;;;;5051553;28;20033;-53
2022/12/07 05:09:24;;;;;;;10.07;5.65;;;21.00;99.90;;;;;;5051605;28;20498;-52
2022/12/07 05:11:50;;;;;;;9.20;5.00;;;21.00;99.90;;;;;;5051876;28;20021;-52
2022/12/07 05:14:18;;;;;;;10.27;5.63;;;21.00;99.90;;;;;;5051666;28;20474;-52
2022/12/07 05:16:46;;;;;;;7.40;5.40;;;21.00;99.90;;;;;;5033796;28;20108;-53
2022/12/07 05:19:12;;;;;;;7.80;5.15;;;21.00;99.90;;;;;;5051413;28;20029;-52
2022/12/07 05:21:38;;;;;;;6.78;4.65;;;21.00;99.90;;;;;;5052458;28;20029;-53
2022/12/07 05:24:06;;;;;;;6.90;4.80;;;20.90;99.90;;;;;;5055225;28;20537;-53
2022/12/07 05:26:32;;;;;;;10.00;4.70;;;21.00;99.90;;;;;;5055282;28;20021;-56
2022/12/07 05:28:58;;;;;;;7.97;5.60;;;20.90;99.90;;;;;;5055332;28;20025;-53
2022/12/07 05:31:25;;;;;;;8.43;4.45;;;20.90;99.90;;;;;;5055240;28;20017;-53
2022/12/07 05:33:51;;;;;;;10.10;5.00;;;20.90;99.90;;;;;;5055467;28;20029;-53
2022/12/07 05:36:17;;;;;;;8.02;4.50;;;20.90;99.90;;;;;;5055212;28;20098;-52
2022/12/07 05:38:43;;;;;;;8.50;5.47;;;20.90;99.90;;;;;;5055080;28;20032;-53
2022/12/07 05:42:11;;;;;;;6.45;4.35;;;20.90;99.90;;;;;;5055144;28;20025;-53
2022/12/07 05:43:59;;;;;;;9.48;4.88;;;20.90;99.90;;;;;;5054691;28;20504;-52
2022/12/07 05:46:25;;;;;;;7.00;4.95;;;20.90;99.90;;;;;;5054900;28;20163;-53
2022/12/07 05:48:51;;;;;;;7.45;4.88;;;20.90;99.90;;;;;;5055159;28;20441;-53
2022/12/07 05:51:17;;;;;;;12.02;5.43;;;20.90;99.90;;;;;;5054920;28;20074;-52
2022/12/07 05:53:43;;;;;;;9.30;4.85;;;20.80;99.90;;;;;;5054991;28;20360;-54
2022/12/07 05:56:09;;;;;;;7.85;4.95;;;20.80;99.90;;;;;;5054873;28;20032;-53
2022/12/07 06:01:19;;;;;;;7.88;5.40;;;20.80;99.90;;;;;;5054474;28;20075;-52
2022/12/07 06:03:45;;;;;;;11.02;5.90;;;20.80;99.90;;;;;;5054578;28;20385;-52
2022/12/07 06:06:11;;;;;;;9.40;5.22;;;20.80;99.90;;;;;;5054686;28;20386;-52
2022/12/07 06:08:36;;;;;;;9.43;5.50;;;20.80;99.90;;;;;;5054561;28;20025;-51
2022/12/07 06:13:46;;;;;;;7.63;5.13;;;20.80;99.90;;;;;;5054702;28;20040;-53
2022/12/07 06:16:12;;;;;;;9.25;5.07;;;20.80;99.90;;;;;;5054406;28;20474;-53
2022/12/07 06:18:38;;;;;;;9.00;4.78;;;20.80;99.90;;;;;;5054452;28;20530;-53
2022/12/07 06:21:03;;;;;;;7.05;4.85;;;20.80;99.90;;;;;;5054315;28;20467;-53
2022/12/07 06:23:29;;;;;;;10.38;5.50;;;20.80;99.90;;;;;;5054271;28;20033;-52
2022/12/07 06:25:55;;;;;;;8.77;5.07;;;20.70;99.90;;;;;;5054483;28;20395;-53
2022/12/07 06:28:20;;;;;;;7.22;4.65;;;20.70;99.90;;;;;;5054434;28;20017;-52
2022/12/07 06:30:46;;;;;;;11.02;5.55;;;20.70;99.90;;;;;;5054122;28;20104;-52
2022/12/07 06:33:12;;;;;;;7.90;4.88;;;20.70;99.90;;;;;;5053613;28;20064;-52
2022/12/07 06:35:38;;;;;;;10.80;5.25;;;20.70;99.90;;;;;;5036067;28;20032;-52
2022/12/07 06:38:03;;;;;;;8.75;4.22;;;20.70;99.90;;;;;;5036297;28;21042;-52
2022/12/07 06:40:29;;;;;;;9.57;5.07;;;20.70;99.90;;;;;;5053830;28;20025;-52
2022/12/07 06:42:55;;;;;;;5.90;4.30;;;20.70;99.90;;;;;;5054119;28;20021;-53
2022/12/07 06:45:21;;;;;;;7.18;4.20;;;20.70;99.90;;;;;;5053920;28;20094;-52
2022/12/07 06:47:46;;;;;;;9.65;4.63;;;20.70;99.90;;;;;;5053769;28;20103;-52
2022/12/07 06:50:12;;;;;;;8.30;4.18;;;20.70;99.90;;;;;;5053753;28;20033;-53
2022/12/07 06:52:38;;;;;;;9.77;4.40;;;20.70;99.90;;;;;;5036051;28;20029;-51
2022/12/07 06:55:04;;;;;;;6.75;4.05;;;20.70;99.90;;;;;;5053390;28;20102;-51
2022/12/07 06:57:30;;;;;;;6.40;4.00;;;20.70;99.90;;;;;;5053590;28;20021;-52
2022/12/07 06:59:55;;;;;;;5.57;3.90;;;20.70;99.90;;;;;;5053597;28;20605;-52
2022/12/07 07:02:21;;;;;;;6.70;3.83;;;20.70;99.90;;;;;;5053597;28;20556;-53
2022/12/07 07:04:47;;;;;;;8.65;4.65;;;20.70;99.90;;;;;;5053314;28;20062;-52
2022/12/07 07:07:12;;;;;;;7.40;4.03;;;20.70;99.90;;;;;;5035315;28;20071;-52
2022/12/07 07:09:38;;;;;;;6.75;3.78;;;20.70;99.90;;;;;;5053307;28;20033;-54
2022/12/07 07:12:04;;;;;;;6.78;3.88;;;20.60;99.90;;;;;;5053377;28;20029;-53
2022/12/07 07:14:30;;;;;;;6.03;3.70;;;20.70;99.90;;;;;;5053284;28;20099;-53
2022/12/07 07:16:55;;;;;;;8.45;3.83;;;20.60;99.90;;;;;;5053510;28;20079;-54
2022/12/07 07:19:21;;;;;;;7.57;3.75;;;20.70;99.90;;;;;;5053155;28;20059;-53
2022/12/07 07:21:47;;;;;;;10.80;4.18;;;20.70;99.90;;;;;;5053117;28;20521;-53
2022/12/07 07:24:13;;;;;;;6.70;3.78;;;20.60;99.90;;;;;;5052968;28;20041;-52
2022/12/07 07:26:38;;;;;;;6.53;3.53;;;20.60;99.90;;;;;;5053096;28;20100;-53
2022/12/07 07:29:04;;;;;;;6.40;3.72;;;20.60;99.90;;;;;;5052875;28;20033;-52
2022/12/07 07:31:30;;;;;;;6.07;3.63;;;20.60;99.90;;;;;;5052897;28;20022;-53
2022/12/07 07:33:56;;;;;;;8.52;3.63;;;20.60;99.90;;;;;;5053094;28;20036;-53
2022/12/07 07:36:21;;;;;;;7.85;3.63;;;20.60;99.90;;;;;;5052866;28;20104;-52
2022/12/07 07:38:47;;;;;;;7.22;3.78;;;20.60;99.90;;;;;;5052826;28;20032;-53
2022/12/07 07:41:13;;;;;;;4.88;3.40;;;20.60;99.90;;;;;;5052855;28;20137;-53
2022/12/07 07:43:38;;;;;;;5.53;3.08;;;20.60;99.90;;;;;;5052342;28;20033;-53
2022/12/07 07:46:04;;;;;;;7.53;3.45;;;20.60;99.90;;;;;;5052360;28;20021;-53
2022/12/07 07:48:30;;;;;;;8.18;3.70;;;20.60;99.90;;;;;;5052709;28;20024;-52
2022/12/07 07:50:56;;;;;;;5.07;3.45;;;20.60;99.90;;;;;;5052761;28;20017;-53
2022/12/07 07:53:21;;;;;;;6.80;3.88;;;20.60;99.90;;;;;;5052389;28;20021;-53
2022/12/07 07:55:54;;;;;;;5.63;3.42;;;20.60;99.90;;;;;;5052349;28;20024;-54
2022/12/07 07:58:21;;;;;;;4.35;3.22;;;20.60;99.90;;;;;;5052410;28;20049;-53
2022/12/07 08:00:46;;;;;;;5.00;3.17;;;20.60;99.90;;;;;;5052349;28;20560;-53
2022/12/07 08:03:12;;;;;;;6.13;3.60;;;20.60;99.90;;;;;;5052362;28;20033;-54
2022/12/07 08:05:38;;;;;;;6.93;3.47;;;20.60;99.90;;;;;;5052365;28;20124;-52
2022/12/07 08:08:04;;;;;;;8.75;3.30;;;20.60;99.90;;;;;;5052224;28;20028;-54
2022/12/07 08:10:31;;;;;;;8.00;3.53;;;20.60;99.90;;;;;;5052525;28;20021;-53
2022/12/07 08:13:13;;;;;;;5.28;3.20;;;20.60;99.90;;;;;;5052557;28;20451;-53
2022/12/07 08:15:47;;;;;;;5.43;3.60;;;20.60;99.90;;;;;;5052294;28;20394;-53
2022/12/07 08:18:14;;;;;;;6.55;3.33;;;20.60;99.90;;;;;;5052086;28;20028;-53
2022/12/07 08:20:40;;;;;;;5.53;3.05;;;20.60;99.90;;;;;;5052129;28;20040;-52
2022/12/07 08:23:08;;;;;;;6.43;3.22;;;20.60;99.90;;;;;;5052060;28;20056;-52
2022/12/07 08:25:34;;;;;;;6.22;2.97;;;20.60;99.90;;;;;;5051964;28;20060;-52
2022/12/07 08:28:00;;;;;;;5.72;3.08;;;20.60;99.90;;;;;;5052448;28;20394;-53
2022/12/07 08:30:27;;;;;;;6.00;3.67;;;20.60;99.90;;;;;;5052017;28;20040;-53
2022/12/07 08:32:53;;;;;;;8.27;3.37;;;20.70;99.90;;;;;;5051904;28;20029;-53
2022/12/07 08:35:19;;;;;;;4.75;3.10;;;20.70;99.90;;;;;;5051815;28;20025;-53
2022/12/07 08:37:45;;;;;;;5.50;3.50;;;20.60;99.90;;;;;;5034066;28;20025;-53
2022/12/07 08:40:14;;;;;;;6.90;3.67;;;20.70;99.90;;;;;;5051901;28;20021;-53
2022/12/07 08:42:42;;;;;;;7.80;4.25;;;20.70;99.90;;;;;;5051889;28;20078;-53
2022/12/07 08:45:11;;;;;;;8.23;3.53;;;20.70;99.90;;;;;;5051914;28;20025;-52
2022/12/07 08:47:40;;;;;;;6.13;3.40;;;20.70;99.90;;;;;;5051717;28;20056;-53
2022/12/07 08:50:08;;;;;;;4.82;2.92;;;20.80;99.90;;;;;;5034000;28;20032;-53
2022/12/07 08:52:35;;;;;;;9.98;3.38;;;20.80;99.90;;;;;;5034031;28;20033;-54
2022/12/07 08:55:03;;;;;;;6.35;4.28;;;20.80;99.90;;;;;;5051833;28;20029;-52
2022/12/07 08:57:29;;;;;;;;;;;20.90;99.90;;;;;;5038372;28;20025;-53
2022/12/07 08:59:55;;;;;;;5.35;3.35;;;21.00;99.90;;;;;;5055548;28;19925;-54
2022/12/07 09:02:21;;;;;;;7.93;3.60;;;21.00;99.90;;;;;;5055680;28;20455;-53
2022/12/07 09:04:47;;;;;;;6.13;3.55;;;21.00;99.90;;;;;;5055687;28;20061;-53
2022/12/07 09:07:13;;;;;;;5.22;3.10;;;21.00;99.90;;;;;;5055517;28;20021;-53
2022/12/07 09:09:38;;;;;;;6.80;3.65;;;21.10;99.90;;;;;;5055667;28;20083;-53
2022/12/07 09:12:04;;;;;;;6.25;3.92;;;21.10;99.90;;;;;;5055882;28;20033;-53
2022/12/07 09:14:30;;;;;;;8.30;4.07;;;21.10;99.90;;;;;;5055689;28;20028;-53
2022/12/07 09:17:08;;;;;;;6.82;3.47;;;21.10;99.90;;;;;;5037486;28;20025;-53
2022/12/07 09:19:34;;;;;;;6.72;3.55;;;21.10;99.90;;;;;;5055528;28;20467;-56
2022/12/07 09:21:59;;;;;;;6.35;3.65;;;21.10;99.90;;;;;;5055292;28;20036;-53
2022/12/07 09:24:25;;;;;;;8.77;3.72;;;21.10;99.90;;;;;;5055261;28;20052;-53
2022/12/07 09:26:51;;;;;;;8.52;4.38;;;21.10;99.90;;;;;;5037571;28;20032;-53
2022/12/07 09:29:16;;;;;;;6.93;3.58;;;21.20;99.90;;;;;;5054969;28;20025;-53
2022/12/07 09:31:42;;;;;;;8.60;4.18;;;21.20;99.90;;;;;;5055089;28;20029;-53
2022/12/07 09:34:08;;;;;;;4.38;3.53;;;21.10;99.90;;;;;;5055194;28;20036;-54
2022/12/07 09:36:34;;;;;;;8.15;4.38;;;21.10;99.90;;;;;;5055231;28;20152;-53
2022/12/07 09:39:00;;;;;;;6.07;3.80;;;21.20;99.90;;;;;;5037313;28;20029;-53
2022/12/07 09:41:29;;;;;;;7.65;4.22;;;21.20;99.90;;;;;;5054991;28;20326;-55
2022/12/07 09:44:09;;;;;;;6.65;4.43;;;21.20;99.90;;;;;;5054821;28;20033;-51
2022/12/07 09:46:38;;;;;;;10.15;5.10;;;21.20;99.90;;;;;;5055137;28;20417;-56
2022/12/07 09:49:09;;;;;;;11.23;4.65;;;21.20;99.90;;;;;;5037617;28;20025;-53
2022/12/07 09:51:35;;;;;;;7.03;4.35;;;21.20;99.90;;;;;;5054834;28;20039;-52
2022/12/07 09:54:02;;;;;;;9.93;4.47;;;21.20;99.90;;;;;;5054673;28;20541;-53
2022/12/07 09:56:30;;;;;;;8.67;4.33;;;21.20;99.90;;;;;;5054670;28;20017;-52
2022/12/07 09:59:02;;;;;;;5.50;3.92;;;21.20;99.90;;;;;;5054581;28;20483;-52
2022/12/07 10:01:33;;;;;;;8.50;4.20;;;21.20;99.90;;;;;;5054307;28;20063;-53
2022/12/07 10:04:09;;;;;;;7.80;4.82;;;21.20;99.90;;;;;;5054474;28;20083;-53
2022/12/07 10:06:35;;;;;;;9.25;4.80;;;21.20;99.90;;;;;;5054650;28;20025;-53
2022/12/07 10:09:01;;;;;;;8.60;4.57;;;21.20;99.90;;;;;;5035807;28;20021;-53
2022/12/07 10:11:27;;;;;;;7.43;4.45;;;21.20;99.90;;;;;;5036391;28;20029;-52
2022/12/07 10:13:53;;;;;;;7.68;4.35;;;21.20;99.90;;;;;;5054452;28;20120;-53
2022/12/07 10:16:26;;;;;;;6.93;4.30;;;21.20;99.90;;;;;;5036214;28;20075;-53
2022/12/07 10:18:52;;;;;;;7.93;4.25;;;21.20;99.90;;;;;;5054205;28;20025;-54
2022/12/07 10:21:25;;;;;;;8.73;4.60;;;21.20;99.90;;;;;;5054019;28;20387;-54
2022/12/07 10:24:03;;;;;;;6.05;3.90;;;21.20;99.90;;;;;;5054192;28;20171;-54
2022/12/07 10:26:49;;;;;;;8.35;4.55;;;21.20;99.90;;;;;;5036200;28;20395;-54
2022/12/07 10:29:20;;;;;;;5.90;4.15;;;21.20;99.90;;;;;;5053894;28;20032;-53
2022/12/07 10:31:53;;;;;;;8.05;3.90;;;21.20;99.90;;;;;;5053830;28;20351;-53
2022/12/07 10:34:28;;;;;;;12.23;5.03;;;21.20;99.90;;;;;;5054093;28;20028;-53
2022/12/07 10:37:16;;;;;;;6.70;4.32;;;21.20;99.90;;;;;;5053875;28;20433;-53
2022/12/07 10:39:51;;;;;;;5.95;4.00;;;21.20;99.90;;;;;;5053708;28;20024;-52
2022/12/07 10:42:23;;;;;;;6.20;4.25;;;21.30;99.90;;;;;;5053886;28;20021;-52
2022/12/07 10:45:06;;;;;;;7.75;4.57;;;21.30;99.90;;;;;;5053591;28;20044;-53
2022/12/07 10:47:43;;;;;;;6.05;4.15;;;21.30;99.90;;;;;;5053659;28;20044;-53
2022/12/07 10:50:12;;;;;;;6.80;3.97;;;21.30;99.90;;;;;;5053945;28;20025;-53
2022/12/07 10:53:13;;;;;;;6.63;3.78;;;21.40;99.90;;;;;;5038540;28;20022;-53
2022/12/07 10:55:47;;;;;;;5.45;3.95;;;21.40;99.90;;;;;;5032956;28;20108;-54
2022/12/07 10:58:28;;;;;;;9.70;4.75;;;21.40;99.90;;;;;;5033237;28;20028;-54
2022/12/07 11:00:56;;;;;;;10.43;4.28;;;21.50;99.90;;;;;;5059107;28;20056;-54
2022/12/07 11:03:52;;;;;;;6.53;4.30;;;21.50;99.90;;;;;;5073157;28;20435;-54
2022/12/07 11:06:32;;;;;;;8.10;4.13;;;21.60;99.90;;;;;;5061424;28;20025;-54
2022/12/07 11:09:38;;;;;;;10.70;4.40;;;21.60;99.90;;;;;;5051907;28;20035;-54
2022/12/07 11:12:28;;;;;;;5.63;3.92;;;21.60;99.90;;;;;;5051803;28;20159;-53
2022/12/07 11:15:19;;;;;;;7.80;4.55;;;21.70;99.90;;;;;;5051299;28;20467;-53
2022/12/07 11:18:03;;;;;;;16.40;4.57;;;21.70;99.90;;;;;;5050362;28;20382;-54
2022/12/07 11:20:42;;;;;;;7.07;3.70;;;21.80;99.90;;;;;;5034333;28;20033;-54
2022/12/07 11:23:11;;;;;;;8.65;3.47;;;21.80;99.90;;;;;;5053036;28;20036;-53
2022/12/07 11:25:57;;;;;;;7.53;3.70;;;21.80;99.90;;;;;;5053157;28;20032;-55
2022/12/07 11:28:31;;;;;;;8.77;3.88;;;21.90;99.90;;;;;;5052912;28;20021;-54
2022/12/07 11:31:05;;;;;;;16.17;5.07;;;21.90;99.90;;;;;;5051349;28;20021;-54
2022/12/07 11:34:14;;;;;;;5.45;4.10;;;22.00;99.90;;;;;;5052796;28;20025;-55
2022/12/07 11:36:51;;;;;;;7.00;4.10;;;22.00;99.90;;;;;;5041999;28;20041;-55
2022/12/07 11:39:35;;;;;;;11.02;4.07;;;22.10;99.90;;;;;;5052895;28;20414;-53
2022/12/07 11:42:12;;;;;;;6.00;3.83;;;22.20;99.90;;;;;;5052496;28;20089;-54
2022/12/07 11:45:02;;;;;;;7.43;3.80;;;22.20;99.90;;;;;;5034795;28;20035;-54
2022/12/07 11:48:00;;;;;;;8.85;4.07;;;22.20;99.90;;;;;;5052660;28;20025;-54
2022/12/07 11:50:42;;;;;;;11.43;3.90;;;22.30;99.90;;;;;;5052385;28;20029;-54
2022/12/07 11:53:08;;;;;;;9.45;4.40;;;22.30;99.90;;;;;;5052049;28;20029;-54
2022/12/07 11:55:54;;;;;;;13.43;4.90;;;22.30;99.90;;;;;;5051805;28;20045;-54
2022/12/07 11:58:31;;;;;;;12.07;4.68;;;22.40;99.90;;;;;;5050254;28;20059;-54
2022/12/07 12:01:11;;;;;;;10.18;5.35;;;22.40;99.90;;;;;;5050407;28;20045;-55
2022/12/07 12:03:43;;;;;;;5.95;4.50;;;22.40;99.90;;;;;;5051200;28;20033;-55
2022/12/07 12:06:09;;;;;;;9.75;4.68;;;22.40;99.90;;;;;;5051994;28;20442;-55
2022/12/07 12:08:54;;;;;;;9.60;4.85;;;22.40;99.90;;;;;;5051762;28;20017;-54
2022/12/07 12:11:45;;;;;;;7.97;4.13;;;22.40;99.90;;;;;;5051828;28;20013;-53
2022/12/07 12:14:19;;;;;;;19.00;6.32;;;22.40;99.90;;;;;;5052408;28;20029;-52
2022/12/07 12:17:03;;;;;;;12.73;4.53;;;22.40;99.90;;;;;;5052033;28;20040;-54
2022/12/07 12:19:40;;;;;;;12.57;4.55;;;22.40;99.90;;;;;;5034224;28;20037;-54
2022/12/07 12:22:18;;;;;;;10.68;5.32;;;22.40;99.90;;;;;;5051868;28;20032;-54
2022/12/07 12:24:46;;;;;;;;;;;22.40;99.90;;;;;;5052439;28;20578;-55
2022/12/07 12:27:26;;;;;;;9.95;4.43;;;22.40;99.90;;;;;;5051983;28;19940;-55
2022/12/07 12:30:01;;;;;;;8.48;4.40;;;22.40;99.90;;;;;;5051525;28;20025;-55
2022/12/07 12:32:44;;;;;;;7.60;4.95;;;22.40;99.90;;;;;;5033614;28;20099;-54
2022/12/07 12:35:32;;;;;;;8.25;4.00;;;22.50;99.90;;;;;;5051772;28;20032;-54
2022/12/07 12:38:39;;;;;;;9.35;4.85;;;22.50;99.90;;;;;;5051838;28;20444;-54
2022/12/07 12:41:05;;;;;;;6.32;4.57;;;22.60;99.90;;;;;;5050361;28;20425;-54
2022/12/07 12:43:48;;;;;;;10.63;5.07;;;22.60;99.90;;;;;;5051590;28;20033;-54
2022/12/07 12:46:29;;;;;;;8.43;5.07;;;22.60;99.90;;;;;;5035271;28;20020;-55
2022/12/07 12:49:20;;;;;;;9.70;5.30;;;22.60;99.90;;;;;;5051737;28;20096;-54
2022/12/07 12:51:48;;;;;;;9.77;4.82;;;22.60;99.90;;;;;;5051997;28;20021;-55
2022/12/07 12:54:26;;;;;;;6.80;5.20;;;22.60;99.90;;;;;;5051945;28;20021;-54
2022/12/07 12:56:56;;;;;;;15.80;5.80;;;22.60;99.90;;;;;;5051702;28;20025;-55
2022/12/07 12:59:22;;;;;;;9.10;5.50;;;22.60;99.90;;;;;;5051452;28;20025;-53
2022/12/07 13:01:50;;;;;;;8.05;5.50;;;22.60;99.90;;;;;;5051600;28;20451;-55
2022/12/07 13:04:25;;;;;;;9.10;5.35;;;22.60;99.90;;;;;;5051770;28;20080;-55
2022/12/07 13:06:51;;;;;;;9.35;5.65;;;22.60;99.90;;;;;;5051793;28;20017;-55
2022/12/07 13:09:33;;;;;;;8.93;5.57;;;22.60;99.90;;;;;;5051736;28;20025;-54